Time;durP1;ratioP1;P1;durP2;ratioP2;P2;SDS_P1;SDS_P2;PMS_P1;PMS_P2;Temp;Humidity;BMP_temperature;BMP_pressure;BME280_temperature;BME280_humidity;BME280_pressure;Samples;Min_cycle;Max_cycle;Signal;HPM_P1;HPM_P2
2022/10/11 00:00:18;;;;;;;11.35;1.35;;;8.70;75.30;;;;;;4099776;28;20155;-83
2022/10/11 00:02:38;;;;;;;7.47;1.00;;;8.60;75.30;;;;;;4100022;28;20027;-83
2022/10/11 00:04:59;;;;;;;4.15;0.90;;;8.60;75.30;;;;;;4104099;28;20046;-83
2022/10/11 00:07:20;;;;;;;10.93;1.08;;;8.60;75.10;;;;;;4107299;28;20125;-82
2022/10/11 00:09:41;;;;;;;13.35;1.40;;;8.60;75.20;;;;;;4105781;28;20037;-83
2022/10/11 00:12:02;;;;;;;8.40;1.10;;;8.60;75.10;;;;;;4104784;28;20027;-83
2022/10/11 00:14:25;;;;;;;12.52;1.20;;;8.50;75.00;;;;;;4103575;28;20960;-83
2022/10/11 00:16:45;;;;;;;8.20;1.25;;;8.50;75.00;;;;;;4102826;28;20106;-83
2022/10/11 00:19:06;;;;;;;12.43;1.25;;;8.50;75.00;;;;;;4106448;28;20042;-83
2022/10/11 00:21:27;;;;;;;7.40;1.30;;;8.40;74.90;;;;;;4102223;28;20121;-83
2022/10/11 00:23:48;;;;;;;11.02;1.10;;;8.40;74.90;;;;;;4104922;28;20043;-83
2022/10/11 00:26:09;;;;;;;8.73;1.10;;;8.40;75.00;;;;;;4106389;28;20744;-83
2022/10/11 00:28:31;;;;;;;8.38;1.50;;;8.40;74.90;;;;;;4101894;28;20030;-83
2022/10/11 00:30:52;;;;;;;9.52;1.20;;;8.40;75.00;;;;;;4120925;28;20058;-82
2022/10/11 00:33:12;;;;;;;10.65;1.45;;;8.30;74.90;;;;;;4108864;28;20034;-82
2022/10/11 00:35:33;;;;;;;11.95;1.77;;;8.30;74.90;;;;;;4105730;28;20042;-83
2022/10/11 00:37:56;;;;;;;11.65;1.48;;;8.40;75.00;;;;;;4107564;28;20023;-83
2022/10/11 00:40:19;;;;;;;20.20;1.63;;;8.30;75.00;;;;;;4104364;28;20039;-83
2022/10/11 00:42:40;;;;;;;14.95;1.70;;;8.20;75.00;;;;;;4100453;28;20038;-84
2022/10/11 00:45:26;;;;;;;10.45;1.50;;;8.20;74.90;;;;;;4108112;28;20026;-84
2022/10/11 00:47:46;;;;;;;8.48;1.52;;;8.20;75.00;;;;;;4104196;28;20039;-83
2022/10/11 00:50:10;;;;;;;15.68;1.40;;;8.20;74.90;;;;;;4117494;28;20026;-83
2022/10/11 00:52:35;;;;;;;23.67;1.73;;;8.10;74.90;;;;;;4107788;28;20109;-83
2022/10/11 00:55:11;;;;;;;12.05;1.33;;;8.10;75.00;;;;;;4114488;28;20042;-83
2022/10/11 00:57:53;;;;;;;12.13;1.20;;;8.10;75.00;;;;;;4111946;28;20069;-83
2022/10/11 01:00:15;;;;;;;16.63;1.40;;;8.10;74.90;;;;;;4053211;29;20033;-84
2022/10/11 01:02:36;;;;;;;7.28;1.33;;;8.10;75.00;;;;;;4074539;29;20282;-84
2022/10/11 01:04:57;;;;;;;13.27;1.63;;;8.10;74.90;;;;;;4076413;29;20031;-85
2022/10/11 01:07:19;;;;;;;12.70;1.80;;;8.10;74.90;;;;;;4073087;29;20102;-83
2022/10/11 01:09:39;;;;;;;12.27;1.55;;;8.00;74.80;;;;;;4075610;29;20047;-83
2022/10/11 01:12:03;;;;;;;13.32;1.50;;;8.00;74.80;;;;;;4068913;29;20131;-83
2022/10/11 01:14:27;;;;;;;;;;;8.00;74.80;;;;;;4067322;29;20040;-83
2022/10/11 01:16:50;;;;;;;13.65;1.60;;;8.00;75.00;;;;;;4065550;29;19958;-84
2022/10/11 01:19:44;;;;;;;8.17;1.30;;;7.90;74.60;;;;;;4063692;29;20031;-84
2022/10/11 01:21:45;;;;;;;;;;;7.90;74.80;;;;;;4072984;29;20174;-84
2022/10/11 01:24:06;;;;;;;16.40;1.55;;;7.90;75.10;;;;;;4054229;29;19915;-84
2022/10/11 01:26:19;;;;;;;15.82;1.63;;;7.90;74.70;;;;;;4055178;29;20052;-84
2022/10/11 01:28:38;;;;;;;13.80;1.25;;;7.90;74.70;;;;;;4072732;29;20032;-84
2022/10/11 01:30:40;;;;;;;12.10;2.08;;;7.80;74.70;;;;;;4083884;28;20046;-83
2022/10/11 01:33:02;;;;;;;12.38;1.50;;;7.80;74.70;;;;;;4104085;28;20030;-83
2022/10/11 01:35:30;;;;;;;12.68;1.83;;;7.80;74.80;;;;;;4106783;28;20077;-83
2022/10/11 01:37:45;;;;;;;19.30;1.88;;;7.80;75.00;;;;;;4120253;28;20085;-83
2022/10/11 01:40:08;;;;;;;20.52;2.10;;;7.80;75.00;;;;;;4121337;28;20026;-83
2022/10/11 01:42:11;;;;;;;19.55;2.47;;;7.80;75.10;;;;;;4109218;28;20027;-84
2022/10/11 01:44:14;;;;;;;17.13;2.50;;;7.80;75.20;;;;;;4106760;28;20122;-83
2022/10/11 01:46:15;;;;;;;14.20;1.75;;;7.70;76.00;;;;;;4106292;28;20038;-83
2022/10/11 01:48:16;;;;;;;16.90;2.08;;;7.80;75.60;;;;;;4102826;28;20536;-83
2022/10/11 01:50:41;;;;;;;22.20;2.40;;;7.80;75.70;;;;;;4107550;28;20031;-84
2022/10/11 01:52:44;;;;;;;27.98;2.67;;;7.80;75.90;;;;;;4107165;28;20027;-83
2022/10/11 01:54:49;;;;;;;17.90;1.98;;;7.90;75.90;;;;;;4102255;28;20058;-83
2022/10/11 01:56:50;;;;;;;14.93;2.08;;;7.80;75.80;;;;;;4090799;28;20026;-82
2022/10/11 01:59:13;;;;;;;24.40;2.53;;;7.90;75.90;;;;;;4104963;28;20435;-83
2022/10/11 02:01:27;;;;;;;15.48;1.75;;;7.80;75.90;;;;;;4116419;28;20022;-82
2022/10/11 02:03:51;;;;;;;14.27;2.13;;;7.80;75.80;;;;;;4098265;28;20136;-83
2022/10/11 02:06:07;;;;;;;17.23;2.00;;;7.90;75.90;;;;;;4100748;28;20035;-84
2022/10/11 02:08:37;;;;;;;17.95;1.92;;;7.80;75.70;;;;;;4084924;29;20032;-83
2022/10/11 02:10:43;;;;;;;15.85;1.88;;;7.80;75.70;;;;;;4101180;28;20102;-84
2022/10/11 02:13:21;;;;;;;11.95;2.05;;;7.80;75.60;;;;;;4103388;28;20069;-83
2022/10/11 02:15:24;;;;;;;13.95;2.03;;;7.80;75.60;;;;;;4052736;29;20679;-83
2022/10/11 02:17:32;;;;;;;10.88;1.95;;;7.80;75.50;;;;;;4039859;29;20111;-85
2022/10/11 02:19:43;;;;;;;21.50;2.40;;;7.80;75.50;;;;;;4044595;29;20154;-85
2022/10/11 02:21:51;;;;;;;17.63;2.00;;;7.80;75.50;;;;;;4036769;29;20068;-85
2022/10/11 02:24:01;;;;;;;19.13;2.28;;;7.80;76.20;;;;;;4043746;29;20043;-84
2022/10/11 02:26:05;;;;;;;19.00;1.90;;;7.80;75.50;;;;;;4072422;29;20035;-85
2022/10/11 02:28:12;;;;;;;;;;;7.80;75.50;;;;;;4042310;29;20032;-85
2022/10/11 02:30:14;;;;;;;15.25;1.98;;;7.80;75.80;;;;;;4058389;29;19911;-85
2022/10/11 02:32:17;;;;;;;19.88;2.38;;;7.80;75.30;;;;;;4057555;29;20040;-84
2022/10/11 02:34:40;;;;;;;19.80;1.92;;;7.80;75.30;;;;;;4061246;29;20180;-85
2022/10/11 02:36:46;;;;;;;15.45;2.05;;;7.80;75.30;;;;;;4041157;29;20585;-85
2022/10/11 02:38:49;;;;;;;11.07;1.70;;;7.70;76.00;;;;;;4069040;29;20118;-83
2022/10/11 02:40:57;;;;;;;16.88;2.15;;;7.70;75.20;;;;;;4070042;28;20051;-83
2022/10/11 02:43:16;;;;;;;17.45;2.15;;;7.80;75.30;;;;;;4041690;29;20037;-83
2022/10/11 02:45:40;;;;;;;16.02;2.22;;;7.70;75.20;;;;;;4057929;29;20048;-83
2022/10/11 02:47:42;;;;;;;11.02;1.80;;;7.70;75.20;;;;;;4055447;29;20138;-84
2022/10/11 02:49:42;;;;;;;11.85;1.85;;;7.60;75.10;;;;;;4057606;29;20033;-83
2022/10/11 02:51:43;;;;;;;19.75;2.35;;;7.60;75.10;;;;;;4090919;28;20138;-83
2022/10/11 02:53:44;;;;;;;19.00;2.10;;;7.60;75.10;;;;;;4106700;28;20054;-83
2022/10/11 02:55:45;;;;;;;15.82;2.00;;;7.60;75.10;;;;;;4101953;28;20133;-81
2022/10/11 02:57:46;;;;;;;15.00;2.60;;;7.60;75.10;;;;;;4105588;28;20029;-82
2022/10/11 02:59:49;;;;;;;16.00;2.40;;;7.60;75.10;;;;;;4102553;28;20038;-81
2022/10/11 03:01:49;;;;;;;13.70;1.95;;;7.60;75.10;;;;;;4103749;28;20030;-82
2022/10/11 03:03:50;;;;;;;18.45;2.30;;;7.50;75.10;;;;;;4101741;28;20035;-83
2022/10/11 03:05:57;;;;;;;24.20;2.75;;;7.50;75.10;;;;;;4087557;28;20172;-82
2022/10/11 03:07:58;;;;;;;12.85;1.88;;;7.60;75.10;;;;;;4120143;28;20034;-82
2022/10/11 03:09:58;;;;;;;14.43;1.60;;;7.50;75.00;;;;;;4103485;28;20027;-83
2022/10/11 03:11:59;;;;;;;11.90;1.70;;;7.50;75.10;;;;;;4108924;28;20035;-82
2022/10/11 03:14:00;;;;;;;16.48;2.35;;;7.50;75.90;;;;;;4104216;28;20768;-83
2022/10/11 03:16:00;;;;;;;16.05;1.83;;;7.50;75.10;;;;;;4104981;28;20116;-82
2022/10/11 03:18:02;;;;;;;16.98;2.25;;;7.50;75.20;;;;;;4104624;28;20181;-82
2022/10/11 03:20:06;;;;;;;18.63;2.78;;;7.40;75.20;;;;;;4119712;28;20046;-82
2022/10/11 03:22:07;;;;;;;12.38;1.95;;;7.40;75.20;;;;;;4107110;28;20121;-83
2022/10/11 03:24:08;;;;;;;14.65;2.10;;;7.40;75.20;;;;;;4103908;28;20822;-82
2022/10/11 03:26:08;;;;;;;15.70;2.50;;;7.40;76.10;;;;;;4101508;28;20030;-82
2022/10/11 03:28:09;;;;;;;12.63;1.60;;;7.40;75.20;;;;;;4107675;28;20042;-82
2022/10/11 03:30:11;;;;;;;17.10;1.98;;;7.40;75.20;;;;;;4104180;28;20105;-84
2022/10/11 03:32:11;;;;;;;15.30;1.80;;;7.40;75.20;;;;;;4107921;28;20537;-84
2022/10/11 03:34:12;;;;;;;15.90;1.90;;;7.40;76.00;;;;;;4104148;28;20035;-83
2022/10/11 03:36:13;;;;;;;15.38;1.85;;;7.40;75.20;;;;;;4105139;28;20406;-82
2022/10/11 03:38:17;;;;;;;14.48;1.50;;;7.50;75.30;;;;;;4102017;28;20073;-82
2022/10/11 03:40:18;;;;;;;15.95;1.90;;;7.40;75.30;;;;;;4105836;28;20041;-82
2022/10/11 03:42:19;;;;;;;15.73;1.90;;;7.30;75.30;;;;;;4105514;28;20023;-82
2022/10/11 03:44:28;;;;;;;17.30;2.03;;;7.30;75.50;;;;;;4105509;28;20029;-82
2022/10/11 03:46:29;;;;;;;15.43;2.08;;;7.40;75.50;;;;;;4119459;28;20034;-83
2022/10/11 03:48:29;;;;;;;13.05;1.95;;;7.30;75.50;;;;;;4105213;28;20026;-81
2022/10/11 03:50:32;;;;;;;19.98;2.72;;;7.30;75.60;;;;;;4105246;28;20473;-83
2022/10/11 03:52:33;;;;;;;17.98;1.90;;;7.30;75.60;;;;;;4106786;28;20062;-83
2022/10/11 03:54:34;;;;;;;21.23;1.85;;;7.30;75.70;;;;;;4102977;28;20028;-82
2022/10/11 03:56:34;;;;;;;15.10;2.05;;;7.30;75.70;;;;;;4098103;28;20031;-83
2022/10/11 03:58:35;;;;;;;21.55;2.55;;;7.30;75.70;;;;;;4120934;28;20149;-83
2022/10/11 04:00:36;;;;;;;11.13;1.90;;;7.40;75.80;;;;;;4082055;28;20031;-82
2022/10/11 04:02:37;;;;;;;12.95;1.80;;;7.30;75.80;;;;;;4112096;28;20515;-83
2022/10/11 04:04:41;;;;;;;22.58;2.20;;;7.30;75.70;;;;;;4104427;28;20023;-84
2022/10/11 04:06:41;;;;;;;14.65;2.03;;;7.50;75.90;;;;;;4105827;28;20029;-84
2022/10/11 04:08:42;;;;;;;13.05;1.85;;;7.30;75.70;;;;;;4109281;28;20681;-84
2022/10/11 04:10:43;;;;;;;13.45;1.55;;;7.30;75.70;;;;;;4106645;28;20042;-83
2022/10/11 04:12:44;;;;;;;13.02;1.88;;;7.30;75.60;;;;;;4138130;28;20060;-85
2022/10/11 04:14:44;;;;;;;13.55;1.73;;;7.30;75.60;;;;;;4110200;28;20391;-85
2022/10/11 04:16:46;;;;;;;11.90;1.95;;;7.30;75.60;;;;;;4107869;28;20065;-85
2022/10/11 04:18:46;;;;;;;16.30;1.70;;;7.30;75.60;;;;;;4110068;28;20019;-84
2022/10/11 04:20:47;;;;;;;12.30;1.67;;;7.40;75.60;;;;;;4109675;28;20038;-85
2022/10/11 04:22:48;;;;;;;12.52;1.70;;;7.30;75.50;;;;;;4125999;28;20022;-85
2022/10/11 04:24:49;;;;;;;18.00;2.15;;;7.30;75.60;;;;;;4105130;28;20022;-84
2022/10/11 04:26:51;;;;;;;16.40;3.15;;;7.30;75.50;;;;;;4102387;28;20030;-85
2022/10/11 04:28:52;;;;;;;16.33;1.80;;;7.20;75.50;;;;;;4088873;28;20063;-85
2022/10/11 04:30:56;;;;;;;15.70;2.08;;;7.40;75.50;;;;;;4105382;28;20444;-84
2022/10/11 04:32:58;;;;;;;16.45;1.92;;;7.20;75.30;;;;;;4120524;28;20030;-85
2022/10/11 04:35:19;;;;;;;19.85;1.85;;;7.40;75.50;;;;;;4105024;28;20552;-85
2022/10/11 04:37:21;;;;;;;19.20;1.85;;;7.20;75.40;;;;;;4091002;28;20608;-85
2022/10/11 04:39:42;;;;;;;13.13;1.73;;;7.20;75.30;;;;;;4120795;28;20061;-84
2022/10/11 04:42:03;;;;;;;22.17;2.80;;;7.20;75.30;;;;;;4110141;28;20041;-85
2022/10/11 04:44:24;;;;;;;17.75;2.03;;;7.20;75.20;;;;;;4107979;28;20113;-85
2022/10/11 04:46:31;;;;;;;20.67;1.95;;;7.20;75.30;;;;;;4102481;28;20639;-84
2022/10/11 04:48:52;;;;;;;14.50;1.83;;;7.20;75.30;;;;;;4107255;28;20058;-84
2022/10/11 04:51:13;;;;;;;14.80;1.88;;;7.20;75.20;;;;;;4110606;28;20030;-84
2022/10/11 04:53:33;;;;;;;20.33;2.15;;;7.20;75.20;;;;;;4106520;28;20031;-84
2022/10/11 04:56:06;;;;;;;11.40;1.70;;;7.20;75.20;;;;;;4103956;28;20027;-82
2022/10/11 04:58:27;;;;;;;16.98;2.60;;;7.20;75.20;;;;;;4108761;28;20158;-82
2022/10/11 05:00:48;;;;;;;22.13;1.67;;;7.30;75.20;;;;;;4107018;28;20078;-82
2022/10/11 05:03:08;;;;;;;12.68;1.60;;;7.10;75.10;;;;;;4104988;28;20126;-81
2022/10/11 05:05:29;;;;;;;10.07;1.58;;;7.20;75.20;;;;;;4108525;28;20042;-82
2022/10/11 05:07:50;;;;;;;14.23;1.38;;;7.10;75.20;;;;;;4106268;28;20041;-81
2022/10/11 05:10:10;;;;;;;16.58;2.00;;;7.10;75.30;;;;;;4104394;28;20118;-82
2022/10/11 05:12:31;;;;;;;8.98;1.40;;;7.10;75.40;;;;;;4107242;28;20521;-82
2022/10/11 05:14:52;;;;;;;13.13;1.67;;;7.10;75.40;;;;;;4103364;28;20130;-82
2022/10/11 05:17:12;;;;;;;17.33;1.60;;;7.20;75.60;;;;;;4108441;28;20046;-83
2022/10/11 05:19:33;;;;;;;7.82;1.27;;;7.10;75.80;;;;;;4109819;28;20506;-83
2022/10/11 05:21:54;;;;;;;12.60;1.90;;;7.10;75.80;;;;;;4108828;28;20035;-83
2022/10/11 05:24:14;;;;;;;11.95;1.40;;;7.10;76.00;;;;;;4106995;28;20094;-84
2022/10/11 05:26:35;;;;;;;23.45;1.90;;;7.30;76.20;;;;;;4106209;28;20098;-83
2022/10/11 05:28:57;;;;;;;9.80;1.50;;;7.20;76.40;;;;;;4108010;28;20029;-84
2022/10/11 05:31:18;;;;;;;9.50;1.33;;;7.20;76.40;;;;;;4108881;28;20054;-83
2022/10/11 05:33:39;;;;;;;8.50;1.58;;;7.20;76.50;;;;;;4107024;28;20027;-84
2022/10/11 05:35:59;;;;;;;16.23;1.70;;;7.20;76.50;;;;;;4105251;28;20039;-83
2022/10/11 05:38:20;;;;;;;14.32;1.95;;;7.30;76.90;;;;;;4108420;28;20109;-84
2022/10/11 05:40:41;;;;;;;18.08;1.88;;;7.40;76.70;;;;;;4116704;28;20034;-83
2022/10/11 05:43:02;;;;;;;12.65;1.60;;;7.40;76.80;;;;;;4104804;28;20028;-84
2022/10/11 05:45:23;;;;;;;15.23;1.73;;;7.30;76.80;;;;;;4114503;28;20031;-87
2022/10/11 05:47:43;;;;;;;11.20;1.80;;;7.30;76.90;;;;;;4107488;28;20030;-86
2022/10/11 05:50:04;;;;;;;16.40;2.00;;;7.30;77.10;;;;;;4105647;28;20039;-85
2022/10/11 05:52:25;;;;;;;8.65;1.20;;;7.40;77.00;;;;;;4098677;28;20035;-85
2022/10/11 05:54:48;;;;;;;9.82;1.35;;;7.40;77.10;;;;;;4107142;28;20038;-85
2022/10/11 05:57:09;;;;;;;10.25;1.38;;;7.40;77.00;;;;;;4103767;28;20034;-86
2022/10/11 05:59:29;;;;;;;18.05;1.63;;;7.60;77.20;;;;;;4105154;28;20043;-86
2022/10/11 06:01:50;;;;;;;14.13;1.45;;;7.50;77.10;;;;;;4101774;28;20114;-85
2022/10/11 06:04:10;;;;;;;17.17;2.38;;;7.50;77.20;;;;;;4107366;28;20038;-85
2022/10/11 06:06:32;;;;;;;12.65;1.40;;;7.50;77.20;;;;;;4106375;28;20139;-86
2022/10/11 06:08:52;;;;;;;17.65;1.90;;;7.60;77.20;;;;;;4102076;28;20053;-86
2022/10/11 06:11:20;;;;;;;22.10;3.10;;;7.60;77.20;;;;;;4107667;28;20129;-85
2022/10/11 06:13:41;;;;;;;26.88;2.00;;;7.60;77.20;;;;;;4104730;28;20027;-84
2022/10/11 06:16:06;;;;;;;22.20;2.13;;;7.70;77.40;;;;;;4120742;28;20027;-84
2022/10/11 06:18:26;;;;;;;15.63;1.83;;;7.60;77.30;;;;;;4113074;28;20035;-84
2022/10/11 06:20:47;;;;;;;21.67;2.22;;;7.70;77.20;;;;;;4112805;28;20045;-84
2022/10/11 06:23:06;;;;;;;14.57;1.70;;;7.70;77.30;;;;;;4107929;28;20533;-84
2022/10/11 06:25:25;;;;;;;17.73;1.90;;;7.70;77.30;;;;;;4121932;28;20170;-84
2022/10/11 06:27:44;;;;;;;16.85;1.60;;;7.70;77.40;;;;;;4105572;28;20053;-85
2022/10/11 06:30:04;;;;;;;20.02;1.70;;;7.80;77.40;;;;;;4110178;28;20566;-84
2022/10/11 06:32:24;;;;;;;13.30;1.85;;;7.80;77.40;;;;;;4108292;28;20081;-83
2022/10/11 06:34:43;;;;;;;15.02;1.80;;;7.80;77.50;;;;;;4108273;28;20033;-84
2022/10/11 06:37:02;;;;;;;13.82;1.67;;;7.90;78.40;;;;;;4110080;28;20080;-84
2022/10/11 06:39:21;;;;;;;20.42;1.92;;;7.90;77.60;;;;;;4122086;28;20041;-85
2022/10/11 06:41:40;;;;;;;15.57;1.75;;;7.90;77.70;;;;;;4110006;28;20045;-84
2022/10/11 06:43:59;;;;;;;21.88;2.08;;;7.90;77.90;;;;;;4120635;28;21637;-84
2022/10/11 06:46:20;;;;;;;16.02;1.60;;;8.00;78.10;;;;;;4105834;28;20114;-84
2022/10/11 06:48:42;;;;;;;17.10;1.83;;;7.90;78.20;;;;;;4108959;28;20459;-84
2022/10/11 06:51:01;;;;;;;18.77;2.30;;;8.20;78.40;;;;;;4105591;28;20713;-84
2022/10/11 06:53:20;;;;;;;18.75;2.20;;;8.10;78.70;;;;;;4106295;28;20089;-84
2022/10/11 06:55:39;;;;;;;22.38;2.20;;;8.30;79.20;;;;;;4106395;28;20050;-84
2022/10/11 06:57:58;;;;;;;15.80;1.80;;;8.30;79.10;;;;;;4109119;28;20088;-84
2022/10/11 07:00:18;;;;;;;17.30;1.95;;;8.30;78.90;;;;;;4105843;28;20042;-84
2022/10/11 07:02:36;;;;;;;13.85;1.80;;;8.40;78.90;;;;;;4109125;28;20231;-84
2022/10/11 07:04:56;;;;;;;13.30;2.10;;;8.50;78.90;;;;;;4105490;28;20744;-85
2022/10/11 07:07:15;;;;;;;13.25;1.45;;;8.50;78.80;;;;;;4106764;28;20038;-85
2022/10/11 07:09:34;;;;;;;21.02;1.88;;;8.50;78.50;;;;;;4108175;28;20042;-85
2022/10/11 07:11:53;;;;;;;11.00;1.55;;;8.70;78.60;;;;;;4102655;28;20046;-85
2022/10/11 07:14:12;;;;;;;15.73;2.22;;;8.60;78.50;;;;;;4120046;28;20080;-84
2022/10/11 07:16:31;;;;;;;8.77;1.17;;;8.70;78.40;;;;;;4109456;28;20422;-85
2022/10/11 07:18:57;;;;;;;11.02;1.92;;;8.70;78.20;;;;;;4104289;28;20114;-84
2022/10/11 07:21:17;;;;;;;13.60;1.50;;;8.70;78.20;;;;;;4107188;28;20069;-85
2022/10/11 07:23:36;;;;;;;10.73;1.20;;;8.80;78.30;;;;;;4104234;28;20045;-85
2022/10/11 07:25:56;;;;;;;7.68;1.10;;;8.80;78.30;;;;;;4103207;28;20726;-85
2022/10/11 07:28:15;;;;;;;8.93;1.42;;;8.90;78.60;;;;;;4103595;28;20042;-85
2022/10/11 07:30:38;;;;;;;6.57;0.90;;;8.90;78.70;;;;;;4101080;28;20042;-85
2022/10/11 07:32:57;;;;;;;7.90;1.10;;;9.00;78.70;;;;;;4108579;28;20054;-84
2022/10/11 07:35:16;;;;;;;7.35;1.10;;;9.10;78.70;;;;;;4107115;28;20065;-85
2022/10/11 07:37:35;;;;;;;13.40;1.30;;;9.20;78.70;;;;;;4109764;28;20157;-85
2022/10/11 07:39:54;;;;;;;7.05;0.98;;;9.20;78.50;;;;;;4105276;28;20045;-85
2022/10/11 07:42:13;;;;;;;8.13;0.90;;;9.30;78.50;;;;;;4104638;28;20081;-84
2022/10/11 07:44:33;;;;;;;8.25;0.80;;;9.30;78.40;;;;;;4106884;28;20186;-85
2022/10/11 07:46:52;;;;;;;5.28;0.98;;;9.40;78.40;;;;;;4104697;28;20029;-85
2022/10/11 07:49:11;;;;;;;5.45;1.08;;;9.50;78.20;;;;;;4103813;28;20114;-85
2022/10/11 07:51:32;;;;;;;11.88;1.02;;;9.60;78.20;;;;;;4106412;28;20138;-85
2022/10/11 07:53:54;;;;;;;10.38;1.25;;;9.60;78.10;;;;;;4101734;28;20055;-85
2022/10/11 07:56:17;;;;;;;8.05;1.30;;;9.70;78.00;;;;;;4103207;28;20065;-85
2022/10/11 07:58:38;;;;;;;7.20;1.23;;;9.80;77.80;;;;;;4102609;28;20082;-84
2022/10/11 08:00:57;;;;;;;7.93;0.90;;;9.70;77.50;;;;;;4101783;28;20042;-84
2022/10/11 08:03:16;;;;;;;9.48;1.88;;;9.80;77.50;;;;;;4095722;28;20033;-83
2022/10/11 08:05:37;;;;;;;6.65;1.08;;;9.80;77.50;;;;;;4107841;28;20026;-83
2022/10/11 08:07:57;;;;;;;9.23;1.42;;;9.90;77.50;;;;;;4103631;28;20034;-83
2022/10/11 08:10:16;;;;;;;8.60;1.33;;;9.90;77.60;;;;;;4106994;28;20570;-83
2022/10/11 08:12:36;;;;;;;12.75;1.85;;;10.00;77.60;;;;;;4104463;28;20078;-85
2022/10/11 08:14:55;;;;;;;12.93;1.80;;;10.00;77.60;;;;;;4097652;28;20046;-85
2022/10/11 08:17:14;;;;;;;8.13;1.83;;;10.20;77.60;;;;;;4097543;28;20117;-84
2022/10/11 08:19:33;;;;;;;8.18;1.88;;;10.10;77.40;;;;;;4101490;28;20041;-85
2022/10/11 08:21:52;;;;;;;7.15;1.30;;;10.20;77.50;;;;;;4097185;28;20284;-84
2022/10/11 08:24:15;;;;;;;12.32;1.40;;;10.30;77.50;;;;;;4098851;28;20038;-85
2022/10/11 08:26:34;;;;;;;10.45;1.00;;;10.30;77.40;;;;;;4115360;28;20036;-85
2022/10/11 08:28:54;;;;;;;7.28;1.25;;;10.30;77.40;;;;;;4101892;28;20130;-85
2022/10/11 08:31:15;;;;;;;7.15;1.20;;;10.40;77.40;;;;;;4115400;28;20046;-84
2022/10/11 08:33:35;;;;;;;8.40;0.95;;;10.50;77.40;;;;;;4100001;28;20585;-84
2022/10/11 08:35:56;;;;;;;18.65;1.55;;;10.60;77.50;;;;;;4101910;28;20086;-84
2022/10/11 08:38:15;;;;;;;10.38;1.55;;;10.60;77.50;;;;;;4102802;28;20106;-85
2022/10/11 08:40:35;;;;;;;11.95;1.10;;;10.70;77.40;;;;;;4100623;28;20066;-86
2022/10/11 08:43:02;;;;;;;11.95;1.70;;;10.80;77.40;;;;;;4096237;28;20046;-84
2022/10/11 08:45:38;;;;;;;12.82;1.45;;;10.80;77.30;;;;;;4114404;28;20042;-85
2022/10/11 08:48:15;;;;;;;12.43;1.35;;;10.90;77.00;;;;;;4104504;28;20561;-85
2022/10/11 08:50:34;;;;;;;8.52;1.08;;;11.00;77.00;;;;;;4103322;28;20045;-85
2022/10/11 08:53:00;;;;;;;13.85;1.30;;;11.10;76.70;;;;;;4115776;28;20146;-84
2022/10/11 08:55:43;;;;;;;10.13;1.50;;;11.10;76.00;;;;;;4104837;28;20089;-85
2022/10/11 08:58:03;;;;;;;12.20;1.40;;;11.30;75.30;;;;;;4106437;28;20110;-84
2022/10/11 09:00:24;;;;;;;7.85;1.27;;;11.30;74.60;;;;;;4103550;28;20066;-85
2022/10/11 09:03:09;;;;;;;11.63;1.02;;;11.40;74.30;;;;;;4106693;28;20041;-85
2022/10/11 09:05:34;;;;;;;;;;;11.50;73.60;;;;;;4104942;28;20045;-86
2022/10/11 09:08:24;;;;;;;10.25;1.30;;;11.50;73.30;;;;;;4117224;28;20023;-85
2022/10/11 09:10:56;;;;;;;5.20;0.82;;;11.50;72.30;;;;;;4102976;28;20046;-86
2022/10/11 09:13:42;;;;;;;6.85;0.98;;;11.60;72.30;;;;;;4103001;28;20054;-86
2022/10/11 09:16:41;;;;;;;7.28;1.00;;;11.60;71.90;;;;;;4103157;28;20042;-85
2022/10/11 09:19:09;;;;;;;7.13;0.93;;;11.60;71.80;;;;;;4094770;28;20050;-86
2022/10/11 09:21:45;;;;;;;7.82;1.40;;;11.70;71.90;;;;;;4097594;28;20759;-86
2022/10/11 09:24:04;;;;;;;8.93;1.00;;;11.70;71.40;;;;;;4106522;28;20055;-84
2022/10/11 09:26:32;;;;;;;9.18;1.23;;;11.80;71.30;;;;;;4101458;28;20073;-86
2022/10/11 09:28:55;;;;;;;7.68;1.20;;;11.80;71.10;;;;;;4103905;28;20034;-86
2022/10/11 09:31:15;;;;;;;8.43;1.30;;;11.80;70.80;;;;;;4118559;28;20630;-84
2022/10/11 09:33:47;;;;;;;7.85;0.90;;;12.00;71.20;;;;;;4102208;28;20042;-85
2022/10/11 09:36:36;;;;;;;7.53;1.02;;;12.00;71.10;;;;;;4103022;28;20073;-85
2022/10/11 09:39:23;;;;;;;11.05;1.23;;;12.00;70.30;;;;;;4095927;28;20115;-85
2022/10/11 09:41:57;;;;;;;5.50;0.77;;;12.10;70.40;;;;;;4104887;28;21004;-85
2022/10/11 09:44:27;;;;;;;;;;;12.20;70.20;;;;;;4106035;28;20130;-85
2022/10/11 09:46:47;;;;;;;6.38;0.82;;;12.30;69.10;;;;;;4099777;28;19921;-84
2022/10/11 09:49:11;;;;;;;6.30;0.90;;;12.30;69.70;;;;;;4103015;28;20057;-85
2022/10/11 09:51:31;;;;;;;6.05;0.90;;;12.40;69.60;;;;;;4102523;28;20506;-84
2022/10/11 09:53:55;;;;;;;8.88;1.25;;;12.40;68.90;;;;;;4103770;28;20046;-84
2022/10/11 09:56:15;;;;;;;12.25;1.10;;;12.40;68.50;;;;;;4105162;28;20041;-84
2022/10/11 09:58:37;;;;;;;3.03;0.63;;;12.50;68.20;;;;;;4105496;28;20030;-86
2022/10/11 10:01:05;;;;;;;8.88;1.00;;;12.50;68.00;;;;;;4103019;28;20118;-86
2022/10/11 10:03:30;;;;;;;6.80;0.98;;;12.60;68.00;;;;;;4103071;28;20074;-86
2022/10/11 10:06:07;;;;;;;4.63;0.95;;;12.60;67.40;;;;;;4102760;28;20034;-85
2022/10/11 10:08:27;;;;;;;5.78;0.90;;;12.70;66.60;;;;;;4106893;28;20146;-86
2022/10/11 10:10:56;;;;;;;6.43;1.20;;;12.70;66.80;;;;;;4119192;28;20162;-86
2022/10/11 10:13:49;;;;;;;11.05;1.10;;;12.80;67.00;;;;;;4106167;28;20041;-85
2022/10/11 10:16:23;;;;;;;6.35;0.90;;;12.90;66.60;;;;;;4117941;28;20077;-86
2022/10/11 10:18:50;;;;;;;6.00;1.08;;;13.00;65.80;;;;;;4115722;28;20045;-86
2022/10/11 10:21:13;;;;;;;10.45;1.00;;;13.00;65.70;;;;;;4106473;28;20579;-86
2022/10/11 10:23:35;;;;;;;8.13;1.15;;;13.00;65.40;;;;;;4106389;28;20108;-85
2022/10/11 10:26:13;;;;;;;7.75;1.17;;;13.10;64.90;;;;;;4105701;28;20107;-86
2022/10/11 10:28:34;;;;;;;7.40;1.40;;;13.20;64.50;;;;;;4102569;28;20663;-86
2022/10/11 10:30:57;;;;;;;11.18;1.17;;;13.20;64.40;;;;;;4106759;28;20033;-86
2022/10/11 10:33:18;;;;;;;8.68;0.95;;;13.30;64.40;;;;;;4104186;28;20435;-86
2022/10/11 10:36:07;;;;;;;8.43;1.27;;;13.40;64.30;;;;;;4105751;28;20039;-86
2022/10/11 10:38:31;;;;;;;7.53;1.40;;;13.40;63.00;;;;;;4105668;28;20042;-86
2022/10/11 10:41:04;;;;;;;4.88;0.98;;;13.40;62.10;;;;;;4104542;28;20038;-85
2022/10/11 10:43:28;;;;;;;7.50;1.00;;;13.40;62.60;;;;;;4104686;28;20567;-86
2022/10/11 10:46:15;;;;;;;11.43;1.13;;;13.40;62.30;;;;;;4103481;28;20039;-85
2022/10/11 10:48:57;;;;;;;6.85;1.02;;;13.40;61.70;;;;;;4106449;28;20491;-85
2022/10/11 10:52:01;;;;;;;6.20;1.08;;;13.40;61.70;;;;;;4114880;28;20145;-85
2022/10/11 10:54:54;;;;;;;8.43;1.00;;;13.40;62.20;;;;;;4104804;28;20513;-86
2022/10/11 10:57:50;;;;;;;9.07;1.20;;;13.40;62.50;;;;;;4117057;28;20113;-85
2022/10/11 11:00:18;;;;;;;4.80;0.85;;;13.40;62.70;;;;;;4105113;28;20109;-86
2022/10/11 11:03:01;;;;;;;5.53;0.98;;;13.30;63.00;;;;;;4104459;28;20124;-85
2022/10/11 11:05:29;;;;;;;8.82;1.25;;;13.30;63.40;;;;;;4103761;28;20558;-84
2022/10/11 11:08:20;;;;;;;5.60;1.00;;;13.30;63.60;;;;;;4103263;28;20042;-86
2022/10/11 11:10:54;;;;;;;7.28;1.75;;;13.20;63.80;;;;;;4096525;28;20117;-85
2022/10/11 11:13:45;;;;;;;10.23;1.65;;;13.20;63.20;;;;;;4100268;28;20094;-86
2022/10/11 11:16:23;;;;;;;11.77;1.25;;;13.20;63.00;;;;;;4105103;28;20129;-87
2022/10/11 11:19:00;;;;;;;9.02;1.15;;;13.20;62.90;;;;;;4100240;28;20159;-85
2022/10/11 11:21:38;;;;;;;8.82;1.40;;;13.30;62.50;;;;;;4099472;28;20621;-86
2022/10/11 11:24:30;;;;;;;9.27;1.08;;;13.30;62.10;;;;;;4092482;28;20142;-86
2022/10/11 11:27:10;;;;;;;9.27;1.10;;;13.40;61.30;;;;;;4103470;28;20044;-86
2022/10/11 11:29:42;;;;;;;8.40;1.08;;;13.30;60.80;;;;;;4098527;28;20058;-86
2022/10/11 11:32:11;;;;;;;6.63;1.00;;;13.40;60.80;;;;;;4100899;28;20085;-86
2022/10/11 11:35:00;;;;;;;11.07;1.55;;;13.50;60.70;;;;;;4112503;28;20094;-86
2022/10/11 11:37:39;;;;;;;8.70;1.27;;;13.50;60.40;;;;;;4102922;28;20038;-87
2022/10/11 11:40:45;;;;;;;7.15;1.35;;;13.50;60.30;;;;;;4098839;28;20037;-86
2022/10/11 11:43:35;;;;;;;11.60;1.45;;;13.50;60.80;;;;;;4098919;28;20842;-86
2022/10/11 11:45:59;;;;;;;10.48;1.45;;;13.50;61.10;;;;;;4112022;28;20572;-86
2022/10/11 11:48:23;;;;;;;9.13;1.65;;;13.50;61.30;;;;;;4099067;28;20925;-87
2022/10/11 11:50:44;;;;;;;;;;;13.50;61.40;;;;;;4113347;28;20049;-86
2022/10/11 11:53:11;;;;;;;14.35;1.92;;;13.50;61.50;;;;;;4094701;28;19925;-86
2022/10/11 11:55:57;;;;;;;11.20;1.67;;;13.40;61.40;;;;;;4097299;28;20049;-86
2022/10/11 11:58:32;;;;;;;9.15;1.00;;;13.40;61.60;;;;;;4098809;28;20115;-86
2022/10/11 12:01:00;;;;;;;7.38;1.77;;;13.40;62.50;;;;;;4088963;28;20668;-86
2022/10/11 12:03:26;;;;;;;11.85;1.38;;;13.30;61.90;;;;;;4108024;28;20161;-86
2022/10/11 12:06:10;;;;;;;14.55;1.50;;;13.40;62.10;;;;;;4100467;28;20038;-86
2022/10/11 12:08:33;;;;;;;17.65;1.85;;;13.40;62.00;;;;;;4103116;28;20051;-86